Time;durP1;ratioP1;P1;durP2;ratioP2;P2;SDS_P1;SDS_P2;PMS_P1;PMS_P2;Temp;Humidity;BMP_temperature;BMP_pressure;BME280_temperature;BME280_humidity;BME280_pressure;Samples;Min_cycle;Max_cycle;Signal;HPM_P1;HPM_P2
2021/11/05 00:01:47;;;;;;;4.65;1.13;;;;;;;;;;5112355;28;20031;-69
2021/11/05 00:04:13;;;;;;;8.85;1.40;;;;;;;;;;5112343;28;20027;-70
2021/11/05 00:06:40;;;;;;;4.70;1.30;;;;;;;;;;5112092;28;20020;-71
2021/11/05 00:09:06;;;;;;;2.72;0.80;;;;;;;;;;5111979;28;20028;-69
2021/11/05 00:11:33;;;;;;;1.83;0.80;;;;;;;;;;5112134;28;20024;-70
2021/11/05 00:13:59;;;;;;;4.30;1.02;;;;;;;;;;5112060;28;20096;-68
2021/11/05 00:16:25;;;;;;;3.65;1.10;;;;;;;;;;5114953;28;20020;-68
2021/11/05 00:18:51;;;;;;;3.60;0.93;;;;;;;;;;5097439;28;20440;-68
2021/11/05 00:21:17;;;;;;;3.63;1.05;;;;;;;;;;5116031;28;20028;-68
2021/11/05 00:23:43;;;;;;;2.88;0.90;;;;;;;;;;5115798;28;20077;-71
2021/11/05 00:26:09;;;;;;;2.45;0.73;;;;;;;;;;5115821;28;20027;-68
2021/11/05 00:28:35;;;;;;;2.55;0.90;;;;;;;;;;5115505;28;20020;-70
2021/11/05 00:31:01;;;;;;;2.30;0.80;;;;;;;;;;5115610;28;20035;-68
2021/11/05 00:33:27;;;;;;;5.97;1.02;;;;;;;;;;5115214;28;20048;-71
2021/11/05 00:35:53;;;;;;;2.65;0.80;;;;;;;;;;5097132;28;20084;-68
2021/11/05 00:38:19;;;;;;;3.38;0.80;;;;;;;;;;5115489;28;20502;-69
2021/11/05 00:40:46;;;;;;;3.22;1.15;;;;;;;;;;5115425;28;20027;-67
2021/11/05 00:43:12;;;;;;;2.35;0.80;;;;;;;;;;5097160;28;20024;-68
2021/11/05 00:45:38;;;;;;;2.17;1.02;;;;;;;;;;5115299;28;20024;-68
2021/11/05 00:48:04;;;;;;;1.45;0.70;;;;;;;;;;5115278;28;20034;-68
2021/11/05 00:50:31;;;;;;;3.40;0.80;;;;;;;;;;5115097;28;20055;-68
2021/11/05 00:52:57;;;;;;;2.25;0.80;;;;;;;;;;5114952;28;20012;-68
2021/11/05 00:55:24;;;;;;;4.53;1.00;;;;;;;;;;5115271;28;20024;-68
2021/11/05 00:57:50;;;;;;;1.83;1.27;;;;;;;;;;5115122;28;20045;-68
2021/11/05 01:00:16;;;;;;;3.65;1.00;;;;;;;;;;5114902;28;20027;-68
2021/11/05 01:02:42;;;;;;;4.88;0.90;;;;;;;;;;5115042;28;20027;-68
2021/11/05 01:05:09;;;;;;;2.55;0.57;;;;;;;;;;5114980;28;20020;-67
2021/11/05 01:07:35;;;;;;;1.90;0.80;;;;;;;;;;5096364;28;20073;-70
2021/11/05 01:10:01;;;;;;;5.15;0.80;;;;;;;;;;5090609;28;20032;-68
2021/11/05 01:12:27;;;;;;;4.30;0.85;;;;;;;;;;5094457;28;20028;-67
2021/11/05 01:14:53;;;;;;;1.88;0.60;;;;;;;;;;5094429;28;20085;-66
2021/11/05 01:17:20;;;;;;;2.20;0.70;;;;;;;;;;5094386;28;20485;-67
2021/11/05 01:19:46;;;;;;;1.85;0.73;;;;;;;;;;5094468;28;20020;-67
2021/11/05 01:22:12;;;;;;;1.95;0.75;;;;;;;;;;5094418;28;20028;-67
2021/11/05 01:24:38;;;;;;;3.58;0.70;;;;;;;;;;5109773;28;20510;-67
2021/11/05 01:27:04;;;;;;;1.65;0.70;;;;;;;;;;5092946;28;20028;-67
2021/11/05 01:29:31;;;;;;;5.00;0.70;;;;;;;;;;5094104;28;20059;-67
2021/11/05 01:31:57;;;;;;;2.05;0.68;;;;;;;;;;5093879;28;20048;-68
2021/11/05 01:34:23;;;;;;;2.25;1.00;;;;;;;;;;5093996;28;20086;-67
2021/11/05 01:36:49;;;;;;;1.48;0.80;;;;;;;;;;5093823;28;20031;-67
2021/11/05 01:39:16;;;;;;;1.52;0.57;;;;;;;;;;5094005;28;20024;-68
2021/11/05 01:41:42;;;;;;;1.63;0.63;;;;;;;;;;5094027;28;20428;-68
2021/11/05 01:44:08;;;;;;;2.08;0.60;;;;;;;;;;5093844;28;20028;-67
2021/11/05 01:46:41;;;;;;;1.42;0.63;;;;;;;;;;5093533;28;20065;-68
2021/11/05 01:49:07;;;;;;;2.58;0.70;;;;;;;;;;5109357;28;20024;-68
2021/11/05 01:51:35;;;;;;;1.83;0.63;;;;;;;;;;5093898;28;20021;-70
2021/11/05 01:54:01;;;;;;;1.65;0.80;;;;;;;;;;5093457;28;20063;-67
2021/11/05 01:56:27;;;;;;;1.27;0.50;;;;;;;;;;5093634;28;20605;-70
2021/11/05 01:58:53;;;;;;;0.85;0.50;;;;;;;;;;5093556;28;20095;-69
2021/11/05 02:01:19;;;;;;;1.17;0.70;;;;;;;;;;5093190;28;20375;-68
2021/11/05 02:03:46;;;;;;;1.83;0.85;;;;;;;;;;5093280;28;20058;-68
2021/11/05 02:06:13;;;;;;;2.22;0.80;;;;;;;;;;5108994;28;20022;-69
2021/11/05 02:08:41;;;;;;;1.63;0.70;;;;;;;;;;5103682;28;20086;-68
2021/11/05 02:11:07;;;;;;;2.08;0.68;;;;;;;;;;5113597;28;20037;-69
2021/11/05 02:13:34;;;;;;;3.53;0.70;;;;;;;;;;5095225;28;20043;-69
2021/11/05 02:16:00;;;;;;;3.55;0.80;;;;;;;;;;5095267;28;20030;-69
2021/11/05 02:18:26;;;;;;;1.42;0.60;;;;;;;;;;5113502;28;20502;-68
2021/11/05 02:20:55;;;;;;;2.80;0.77;;;;;;;;;;5113309;28;20023;-69
2021/11/05 02:23:21;;;;;;;1.10;0.60;;;;;;;;;;5113492;28;20490;-68
2021/11/05 02:25:47;;;;;;;2.95;0.63;;;;;;;;;;5095272;28;20055;-68
2021/11/05 02:28:13;;;;;;;1.27;0.52;;;;;;;;;;5113192;28;20019;-67
2021/11/05 02:30:39;;;;;;;2.70;0.63;;;;;;;;;;5094674;28;20054;-67
2021/11/05 02:33:06;;;;;;;2.00;0.70;;;;;;;;;;5094617;28;20043;-67
2021/11/05 02:35:32;;;;;;;1.63;0.60;;;;;;;;;;5094929;28;20035;-68
2021/11/05 02:37:58;;;;;;;2.08;0.70;;;;;;;;;;5113058;28;20077;-67
2021/11/05 02:40:24;;;;;;;2.40;0.80;;;;;;;;;;5113092;28;20027;-67
2021/11/05 02:42:50;;;;;;;1.30;0.77;;;;;;;;;;5113091;28;20023;-68
2021/11/05 02:45:18;;;;;;;3.78;0.60;;;;;;;;;;5112964;28;20145;-68
2021/11/05 02:47:44;;;;;;;2.25;0.77;;;;;;;;;;5112790;28;20028;-67
2021/11/05 02:50:13;;;;;;;4.05;0.88;;;;;;;;;;5112903;28;20044;-68
2021/11/05 02:52:39;;;;;;;1.67;0.70;;;;;;;;;;5112818;28;20028;-67
2021/11/05 02:55:06;;;;;;;1.42;0.70;;;;;;;;;;5112718;28;20038;-67
2021/11/05 02:57:32;;;;;;;1.50;0.80;;;;;;;;;;5112940;28;20098;-69
2021/11/05 02:59:58;;;;;;;1.23;0.70;;;;;;;;;;5094496;28;20024;-68
2021/11/05 03:02:24;;;;;;;3.25;1.27;;;;;;;;;;5112832;28;20433;-67
2021/11/05 03:04:52;;;;;;;1.35;0.68;;;;;;;;;;5094574;28;20027;-67
2021/11/05 03:07:18;;;;;;;1.85;0.80;;;;;;;;;;5112941;28;20077;-67
2021/11/05 03:09:44;;;;;;;2.17;0.63;;;;;;;;;;5111660;28;20474;-69
2021/11/05 03:12:11;;;;;;;1.98;0.75;;;;;;;;;;5093319;28;20052;-66
2021/11/05 03:14:40;;;;;;;3.05;1.77;;;;;;;;;;5092482;28;20032;-67
2021/11/05 03:17:07;;;;;;;2.90;0.90;;;;;;;;;;5092442;28;20091;-68
2021/11/05 03:19:34;;;;;;;3.35;0.73;;;;;;;;;;5092315;28;20028;-68
2021/11/05 03:22:00;;;;;;;3.95;0.70;;;;;;;;;;5092466;28;20562;-68
2021/11/05 03:24:26;;;;;;;3.78;0.70;;;;;;;;;;5092230;28;20032;-67
2021/11/05 03:26:53;;;;;;;1.80;0.80;;;;;;;;;;5092312;28;20059;-67
2021/11/05 03:29:20;;;;;;;4.93;0.77;;;;;;;;;;5092270;28;20024;-72
2021/11/05 03:31:46;;;;;;;3.88;0.90;;;;;;;;;;5092232;28;20033;-67
2021/11/05 03:34:12;;;;;;;2.97;1.05;;;;;;;;;;5108032;28;20046;-66
2021/11/05 03:36:38;;;;;;;1.77;0.77;;;;;;;;;;5092377;28;20024;-68
2021/11/05 03:39:05;;;;;;;6.00;1.15;;;;;;;;;;5092099;28;20028;-67
2021/11/05 03:41:31;;;;;;;3.08;0.88;;;;;;;;;;5092076;28;20095;-68
2021/11/05 03:43:57;;;;;;;2.63;0.90;;;;;;;;;;5092023;28;20016;-67
2021/11/05 03:46:24;;;;;;;1.85;0.80;;;;;;;;;;5092016;28;20032;-67
2021/11/05 03:48:50;;;;;;;3.13;1.02;;;;;;;;;;5107698;28;20027;-67
2021/11/05 03:51:16;;;;;;;1.52;0.70;;;;;;;;;;5110460;28;20459;-68
2021/11/05 03:53:42;;;;;;;4.65;0.80;;;;;;;;;;5095749;28;20020;-67
2021/11/05 03:56:08;;;;;;;2.88;1.10;;;;;;;;;;5095877;28;20425;-68
2021/11/05 03:58:36;;;;;;;2.95;0.93;;;;;;;;;;5111631;28;20020;-68
2021/11/05 04:01:02;;;;;;;1.67;0.70;;;;;;;;;;5095920;28;20024;-71
2021/11/05 04:03:28;;;;;;;2.00;0.75;;;;;;;;;;5111589;28;20016;-67
2021/11/05 04:05:54;;;;;;;2.03;0.82;;;;;;;;;;5095736;28;20032;-68
2021/11/05 04:08:21;;;;;;;3.60;0.95;;;;;;;;;;5095737;28;20027;-68
2021/11/05 04:10:47;;;;;;;3.92;0.88;;;;;;;;;;5095835;28;20024;-68
2021/11/05 04:13:13;;;;;;;3.05;0.80;;;;;;;;;;5095383;28;20019;-68
2021/11/05 04:15:39;;;;;;;2.45;0.95;;;;;;;;;;5110960;28;20070;-67
2021/11/05 04:18:05;;;;;;;1.83;0.90;;;;;;;;;;5093651;28;20024;-68
2021/11/05 04:20:34;;;;;;;1.30;0.68;;;;;;;;;;5095434;28;20504;-69
2021/11/05 04:23:00;;;;;;;4.20;0.75;;;;;;;;;;5095560;28;20024;-68
2021/11/05 04:25:26;;;;;;;2.15;1.15;;;;;;;;;;5095533;28;20054;-67
2021/11/05 04:27:52;;;;;;;1.67;0.70;;;;;;;;;;5095564;28;20051;-68
2021/11/05 04:30:18;;;;;;;3.05;0.98;;;;;;;;;;5095428;28;20413;-68
2021/11/05 04:32:45;;;;;;;2.33;0.82;;;;;;;;;;5095104;28;20153;-68
2021/11/05 04:35:11;;;;;;;2.55;0.80;;;;;;;;;;5095272;28;20036;-68
2021/11/05 04:37:38;;;;;;;1.83;0.80;;;;;;;;;;5095236;28;20027;-68
2021/11/05 04:40:04;;;;;;;3.03;0.82;;;;;;;;;;5110692;28;20154;-68
2021/11/05 04:42:30;;;;;;;2.17;0.85;;;;;;;;;;5094908;28;20499;-68
2021/11/05 04:44:56;;;;;;;1.83;0.88;;;;;;;;;;5095039;28;20028;-68
2021/11/05 04:47:22;;;;;;;1.40;0.80;;;;;;;;;;5110830;28;20021;-67
2021/11/05 04:49:48;;;;;;;1.25;0.70;;;;;;;;;;5094933;28;20020;-68
2021/11/05 04:52:14;;;;;;;1.48;0.70;;;;;;;;;;5094960;28;20058;-68
2021/11/05 04:54:40;;;;;;;6.03;1.00;;;;;;;;;;5110449;28;20061;-67
2021/11/05 04:57:09;;;;;;;11.10;1.17;;;;;;;;;;5094792;28;20093;-68
2021/11/05 04:59:35;;;;;;;3.35;0.90;;;;;;;;;;5110396;28;20056;-70
2021/11/05 05:02:02;;;;;;;2.80;1.00;;;;;;;;;;5110147;28;20476;-68
2021/11/05 05:04:28;;;;;;;10.73;0.73;;;;;;;;;;5094709;28;20051;-69
2021/11/05 05:06:54;;;;;;;6.70;0.90;;;;;;;;;;5110121;28;20031;-67
2021/11/05 05:09:21;;;;;;;1.95;0.80;;;;;;;;;;5094243;28;20020;-67
2021/11/05 05:11:47;;;;;;;1.80;0.68;;;;;;;;;;5109322;27;20089;-67
2021/11/05 05:14:14;;;;;;;3.13;0.85;;;;;;;;;;5094348;28;20032;-68
2021/11/05 05:16:40;;;;;;;3.63;0.95;;;;;;;;;;5094298;28;20023;-69
2021/11/05 05:19:07;;;;;;;3.83;0.90;;;;;;;;;;5094221;28;20097;-68
2021/11/05 05:21:33;;;;;;;4.22;1.08;;;;;;;;;;5094325;28;20046;-68
2021/11/05 05:23:59;;;;;;;2.78;0.80;;;;;;;;;;5094101;28;20513;-69
2021/11/05 05:26:25;;;;;;;2.90;0.90;;;;;;;;;;5094275;28;20395;-69
2021/11/05 05:28:51;;;;;;;4.50;1.05;;;;;;;;;;5094220;28;20047;-68
2021/11/05 05:31:17;;;;;;;5.28;1.33;;;;;;;;;;5093999;28;20103;-69
2021/11/05 05:33:43;;;;;;;9.55;0.90;;;;;;;;;;5093870;28;20047;-69
2021/11/05 05:36:10;;;;;;;3.72;1.02;;;;;;;;;;5093963;28;20513;-73
2021/11/05 05:38:36;;;;;;;7.68;1.00;;;;;;;;;;5093818;28;20031;-71
2021/11/05 05:41:03;;;;;;;3.20;1.08;;;;;;;;;;5075801;28;20110;-70
2021/11/05 05:43:29;;;;;;;11.25;1.00;;;;;;;;;;5093880;28;20110;-68
2021/11/05 05:45:56;;;;;;;3.40;0.88;;;;;;;;;;5093658;28;20031;-69
2021/11/05 05:48:22;;;;;;;9.13;1.13;;;;;;;;;;5093520;28;20390;-68
2021/11/05 05:50:48;;;;;;;2.83;1.00;;;;;;;;;;5093717;28;20012;-69
2021/11/05 05:53:15;;;;;;;7.72;1.35;;;;;;;;;;5093534;28;20023;-69
2021/11/05 05:55:41;;;;;;;2.08;0.85;;;;;;;;;;5075296;28;20194;-70
2021/11/05 05:58:08;;;;;;;3.10;1.00;;;;;;;;;;5093457;28;20020;-69
2021/11/05 06:00:35;;;;;;;5.53;0.82;;;;;;;;;;5093437;28;20032;-68
2021/11/05 06:03:01;;;;;;;3.17;0.93;;;;;;;;;;5093316;28;20012;-68
2021/11/05 06:05:27;;;;;;;5.63;1.05;;;;;;;;;;5093447;28;20099;-70
2021/11/05 06:07:53;;;;;;;6.65;0.80;;;;;;;;;;5093575;28;20024;-69
2021/11/05 06:10:19;;;;;;;6.55;0.80;;;;;;;;;;5093130;28;20487;-70
2021/11/05 06:12:45;;;;;;;5.35;1.00;;;;;;;;;;5092328;28;20395;-69
2021/11/05 06:15:12;;;;;;;6.65;1.05;;;;;;;;;;5074971;28;20070;-68
2021/11/05 06:17:38;;;;;;;6.10;1.10;;;;;;;;;;5093049;28;20121;-69
2021/11/05 06:20:05;;;;;;;6.15;1.20;;;;;;;;;;5092931;28;20169;-69
2021/11/05 06:22:31;;;;;;;4.05;1.30;;;;;;;;;;5092887;28;20027;-69
2021/11/05 06:24:59;;;;;;;5.07;0.90;;;;;;;;;;5074728;28;20020;-69
2021/11/05 06:27:26;;;;;;;4.10;1.00;;;;;;;;;;5092881;28;20060;-69
2021/11/05 06:29:52;;;;;;;6.47;1.10;;;;;;;;;;5092695;28;20111;-69
2021/11/05 06:32:18;;;;;;;4.70;0.98;;;;;;;;;;5092574;28;20066;-69
2021/11/05 06:34:45;;;;;;;5.32;1.17;;;;;;;;;;5074449;28;20402;-69
2021/11/05 06:37:11;;;;;;;5.97;1.42;;;;;;;;;;5092854;28;20523;-69
2021/11/05 06:39:37;;;;;;;2.13;0.80;;;;;;;;;;5092630;28;20032;-68
2021/11/05 06:42:03;;;;;;;3.53;0.90;;;;;;;;;;5092858;28;20059;-69
2021/11/05 06:44:29;;;;;;;3.95;1.05;;;;;;;;;;5092538;28;20031;-71
2021/11/05 06:46:58;;;;;;;6.75;1.13;;;;;;;;;;5092265;28;20095;-68
2021/11/05 06:49:24;;;;;;;4.07;0.93;;;;;;;;;;5092397;28;20020;-68
2021/11/05 06:51:53;;;;;;;3.00;1.10;;;;;;;;;;5092709;28;20024;-68
2021/11/05 06:54:20;;;;;;;4.88;0.95;;;;;;;;;;5092351;28;20490;-68
2021/11/05 06:56:46;;;;;;;3.08;1.00;;;;;;;;;;5074487;28;20571;-68
2021/11/05 06:59:12;;;;;;;2.22;0.80;;;;;;;;;;5074334;28;20024;-68
2021/11/05 07:01:39;;;;;;;2.90;1.13;;;;;;;;;;5092145;28;20020;-68
2021/11/05 07:04:05;;;;;;;2.35;0.95;;;;;;;;;;5092205;28;20195;-69
2021/11/05 07:06:31;;;;;;;6.22;1.25;;;;;;;;;;5092259;28;20016;-69
2021/11/05 07:08:57;;;;;;;2.30;0.82;;;;;;;;;;5092278;28;20520;-68
2021/11/05 07:11:23;;;;;;;3.83;1.08;;;;;;;;;;5100406;28;20057;-72
2021/11/05 07:13:49;;;;;;;2.33;0.73;;;;;;;;;;5094313;28;20039;-69
2021/11/05 07:16:16;;;;;;;3.55;1.20;;;;;;;;;;5112714;28;20486;-69
2021/11/05 07:18:42;;;;;;;4.82;1.13;;;;;;;;;;5112551;28;20055;-69
2021/11/05 07:21:09;;;;;;;2.65;0.80;;;;;;;;;;5112547;28;20069;-68
2021/11/05 07:23:35;;;;;;;6.05;1.20;;;;;;;;;;5094088;28;20133;-69
2021/11/05 07:26:02;;;;;;;6.07;1.05;;;;;;;;;;5115105;28;20028;-71
2021/11/05 07:28:28;;;;;;;2.85;1.20;;;;;;;;;;5116778;28;20020;-70
2021/11/05 07:30:55;;;;;;;3.70;1.20;;;;;;;;;;5098506;28;20486;-70
2021/11/05 07:33:21;;;;;;;2.08;0.95;;;;;;;;;;5116474;28;20051;-72
2021/11/05 07:35:47;;;;;;;2.00;1.02;;;;;;;;;;5116809;28;20031;-72
2021/11/05 07:38:15;;;;;;;5.70;0.98;;;;;;;;;;5116562;28;20028;-70
2021/11/05 07:40:41;;;;;;;2.28;1.10;;;;;;;;;;5116606;28;20417;-70
2021/11/05 07:43:07;;;;;;;1.70;1.00;;;;;;;;;;5116619;28;20020;-70
2021/11/05 07:45:34;;;;;;;3.65;1.00;;;;;;;;;;5116497;28;20077;-71
2021/11/05 07:48:00;;;;;;;4.78;1.00;;;;;;;;;;5098069;28;20046;-70
2021/11/05 07:50:32;;;;;;;3.88;1.02;;;;;;;;;;5116174;28;20020;-70
2021/11/05 07:52:59;;;;;;;2.20;0.98;;;;;;;;;;5115380;28;20059;-70
2021/11/05 07:55:25;;;;;;;2.90;0.90;;;;;;;;;;5096966;28;20368;-70
2021/11/05 07:57:52;;;;;;;2.88;1.08;;;;;;;;;;5116102;28;20012;-70
2021/11/05 08:00:18;;;;;;;2.53;1.10;;;;;;;;;;5116045;28;20077;-70
2021/11/05 08:02:44;;;;;;;2.80;0.75;;;;;;;;;;5115991;28;20012;-70
2021/11/05 08:05:10;;;;;;;2.50;0.80;;;;;;;;;;5116119;28;20023;-69
2021/11/05 08:07:37;;;;;;;3.72;1.00;;;;;;;;;;5115944;28;20024;-69
2021/11/05 08:10:03;;;;;;;2.35;1.00;;;;;;;;;;5115850;28;20098;-70
2021/11/05 08:12:29;;;;;;;2.75;0.98;;;;;;;;;;5115947;28;20027;-70
2021/11/05 08:14:55;;;;;;;1.65;0.75;;;;;;;;;;5115697;28;20110;-69
2021/11/05 08:17:21;;;;;;;2.78;1.00;;;;;;;;;;5115692;28;20065;-70
2021/11/05 08:19:47;;;;;;;2.63;1.00;;;;;;;;;;5097394;28;20028;-70
2021/11/05 08:22:17;;;;;;;7.40;0.90;;;;;;;;;;5115829;28;20576;-69
2021/11/05 08:24:43;;;;;;;3.15;1.02;;;;;;;;;;5097608;28;20080;-70
2021/11/05 08:27:09;;;;;;;3.80;1.30;;;;;;;;;;5115901;28;20015;-70
2021/11/05 08:29:36;;;;;;;5.03;1.17;;;;;;;;;;5115612;28;20062;-70
2021/11/05 08:32:02;;;;;;;3.65;0.90;;;;;;;;;;5115592;28;20039;-70
2021/11/05 08:34:28;;;;;;;1.98;0.98;;;;;;;;;;5115471;28;20083;-70
2021/11/05 08:36:54;;;;;;;2.47;0.90;;;;;;;;;;5096923;28;20028;-69
2021/11/05 08:39:20;;;;;;;4.13;1.30;;;;;;;;;;5115440;28;20758;-69
2021/11/05 08:41:47;;;;;;;2.17;0.90;;;;;;;;;;5114998;28;20061;-69
2021/11/05 08:44:13;;;;;;;2.65;0.90;;;;;;;;;;5096881;28;20486;-69
2021/11/05 08:46:39;;;;;;;2.88;1.17;;;;;;;;;;5096753;28;20020;-68
2021/11/05 08:49:09;;;;;;;9.00;1.52;;;;;;;;;;5097041;28;20038;-69
2021/11/05 08:51:35;;;;;;;4.55;1.02;;;;;;;;;;5115058;28;20599;-69
2021/11/05 08:54:02;;;;;;;4.93;1.17;;;;;;;;;;5115003;28;20475;-71
2021/11/05 08:56:28;;;;;;;2.97;1.15;;;;;;;;;;5115124;28;20020;-69
2021/11/05 08:58:54;;;;;;;3.65;1.35;;;;;;;;;;5096682;28;20150;-69
2021/11/05 09:01:20;;;;;;;4.90;1.20;;;;;;;;;;5115089;28;20068;-69
2021/11/05 09:03:47;;;;;;;3.67;1.02;;;;;;;;;;5115058;28;20031;-69
2021/11/05 09:06:13;;;;;;;2.35;0.80;;;;;;;;;;5114947;28;20100;-68
2021/11/05 09:08:39;;;;;;;7.57;1.35;;;;;;;;;;5096317;28;20028;-72
2021/11/05 09:11:06;;;;;;;3.05;1.10;;;;;;;;;;5092289;28;20135;-69
2021/11/05 09:13:33;;;;;;;6.53;1.20;;;;;;;;;;5094220;28;20030;-69
2021/11/05 09:15:59;;;;;;;4.45;1.20;;;;;;;;;;5094340;28;20023;-69
2021/11/05 09:18:25;;;;;;;9.60;1.05;;;;;;;;;;5094041;28;20103;-69
2021/11/05 09:20:51;;;;;;;2.72;1.00;;;;;;;;;;5094054;28;20024;-70
2021/11/05 09:23:17;;;;;;;4.38;1.10;;;;;;;;;;5076533;28;20016;-70
2021/11/05 09:25:44;;;;;;;2.92;1.15;;;;;;;;;;5094905;28;20028;-68
2021/11/05 09:28:10;;;;;;;6.95;1.10;;;;;;;;;;5094366;28;20027;-68
2021/11/05 09:30:36;;;;;;;8.38;1.10;;;;;;;;;;5094082;28;20078;-68
2021/11/05 09:33:03;;;;;;;5.65;1.13;;;;;;;;;;5093721;28;20052;-69
2021/11/05 09:35:29;;;;;;;2.90;1.00;;;;;;;;;;5075541;28;20553;-69
2021/11/05 09:37:55;;;;;;;4.78;0.80;;;;;;;;;;5093933;28;20077;-69
2021/11/05 09:40:24;;;;;;;3.42;1.00;;;;;;;;;;5075812;28;20052;-70
2021/11/05 09:42:51;;;;;;;2.03;0.80;;;;;;;;;;5093968;28;20379;-69
2021/11/05 09:45:18;;;;;;;1.90;0.80;;;;;;;;;;5094013;28;20012;-68
2021/11/05 09:47:44;;;;;;;5.35;1.25;;;;;;;;;;5092885;28;20024;-68
2021/11/05 09:50:13;;;;;;;2.78;1.00;;;;;;;;;;5094040;28;20079;-68
2021/11/05 09:52:39;;;;;;;2.03;0.93;;;;;;;;;;5093642;28;20039;-68
2021/11/05 09:55:06;;;;;;;5.07;1.10;;;;;;;;;;5075371;28;20027;-70
2021/11/05 09:57:32;;;;;;;2.03;0.85;;;;;;;;;;5093581;28;20031;-68
2021/11/05 09:59:59;;;;;;;8.13;1.20;;;;;;;;;;5075453;28;20049;-69
2021/11/05 10:02:25;;;;;;;2.80;0.88;;;;;;;;;;5093624;28;20046;-69
2021/11/05 10:04:51;;;;;;;9.68;1.77;;;;;;;;;;5095547;28;20023;-69
2021/11/05 10:07:18;;;;;;;2.63;1.17;;;;;;;;;;5103311;28;20019;-69
2021/11/05 10:09:52;;;;;;;3.70;1.10;;;;;;;;;;5096078;27;20382;-69
2021/11/05 10:12:19;;;;;;;5.18;1.02;;;;;;;;;;5092492;28;20030;-69
2021/11/05 10:14:47;;;;;;;2.00;0.90;;;;;;;;;;5095010;28;20078;-70
2021/11/05 10:17:15;;;;;;;5.55;0.85;;;;;;;;;;5129812;27;20023;-69
2021/11/05 10:19:47;;;;;;;4.90;1.20;;;;;;;;;;5133666;27;20023;-69
2021/11/05 10:22:31;;;;;;;2.80;0.93;;;;;;;;;;5115145;27;20025;-69
2021/11/05 10:25:16;;;;;;;3.97;1.08;;;;;;;;;;5074776;28;20364;-68
2021/11/05 10:27:43;;;;;;;5.28;1.17;;;;;;;;;;5092699;28;20030;-69
2021/11/05 10:30:09;;;;;;;4.95;0.88;;;;;;;;;;5093222;28;20479;-69
2021/11/05 10:32:40;;;;;;;2.08;0.80;;;;;;;;;;5092627;28;20048;-69
2021/11/05 10:35:13;;;;;;;3.35;0.90;;;;;;;;;;5074312;28;20036;-69
2021/11/05 10:37:43;;;;;;;2.15;0.80;;;;;;;;;;5092875;28;20486;-69
2021/11/05 10:40:11;;;;;;;4.07;1.10;;;;;;;;;;5092229;28;20390;-70
2021/11/05 10:42:38;;;;;;;5.75;0.88;;;;;;;;;;5074227;28;20103;-69
2021/11/05 10:45:12;;;;;;;2.67;0.95;;;;;;;;;;5092473;28;20108;-69
2021/11/05 10:47:53;;;;;;;2.75;0.90;;;;;;;;;;5112567;28;20390;-69
2021/11/05 10:50:20;;;;;;;5.22;0.90;;;;;;;;;;5112772;28;20483;-69
2021/11/05 10:53:03;;;;;;;1.58;0.70;;;;;;;;;;5112839;28;20062;-69
2021/11/05 10:55:50;;;;;;;5.20;1.05;;;;;;;;;;5112790;28;20039;-69
2021/11/05 10:58:25;;;;;;;5.45;1.10;;;;;;;;;;5112489;28;20027;-69
2021/11/05 11:01:02;;;;;;;2.67;0.80;;;;;;;;;;5090699;28;20635;-71
2021/11/05 11:03:32;;;;;;;1.67;0.90;;;;;;;;;;5092722;28;20196;-70
2021/11/05 11:06:00;;;;;;;4.53;1.10;;;;;;;;;;5074091;28;20048;-69
2021/11/05 11:08:27;;;;;;;2.97;0.85;;;;;;;;;;5073814;28;20081;-69
2021/11/05 11:10:55;;;;;;;2.72;0.80;;;;;;;;;;5092124;28;20016;-69
2021/11/05 11:13:40;;;;;;;5.22;1.30;;;;;;;;;;5091971;28;20517;-71
2021/11/05 11:16:08;;;;;;;3.78;1.00;;;;;;;;;;5092074;28;20056;-70
2021/11/05 11:18:46;;;;;;;5.72;1.15;;;;;;;;;;5091935;28;20026;-71
2021/11/05 11:21:13;;;;;;;3.97;0.90;;;;;;;;;;5073877;28;20027;-72
2021/11/05 11:23:40;;;;;;;3.72;0.90;;;;;;;;;;5074114;28;20028;-70
2021/11/05 11:26:06;;;;;;;9.18;1.45;;;;;;;;;;5074126;28;20032;-72
2021/11/05 11:28:32;;;;;;;5.28;1.23;;;;;;;;;;5074102;28;20023;-71
2021/11/05 11:30:58;;;;;;;5.70;0.90;;;;;;;;;;5092255;28;20479;-73
2021/11/05 11:33:25;;;;;;;3.63;1.05;;;;;;;;;;5073833;28;20084;-72
2021/11/05 11:35:51;;;;;;;4.03;0.95;;;;;;;;;;5073841;28;20126;-71
2021/11/05 11:38:20;;;;;;;7.97;1.23;;;;;;;;;;5073985;28;20024;-70
2021/11/05 11:40:47;;;;;;;5.57;1.10;;;;;;;;;;5092127;28;20486;-70
2021/11/05 11:43:15;;;;;;;2.58;0.93;;;;;;;;;;5092110;28;20024;-71
2021/11/05 11:45:45;;;;;;;3.88;1.00;;;;;;;;;;5092009;28;20066;-71
2021/11/05 11:48:11;;;;;;;3.00;0.90;;;;;;;;;;5092015;28;20035;-72
2021/11/05 11:50:38;;;;;;;2.47;0.88;;;;;;;;;;5091996;28;20016;-71
2021/11/05 11:53:05;;;;;;;6.63;1.00;;;;;;;;;;5073624;28;20028;-71
2021/11/05 11:55:33;;;;;;;5.22;1.10;;;;;;;;;;5091926;28;20036;-70
2021/11/05 11:58:31;;;;;;;1.58;0.82;;;;;;;;;;5091942;28;20016;-71
2021/11/05 12:01:17;;;;;;;2.25;0.98;;;;;;;;;;5068509;28;20124;-71
2021/11/05 12:03:57;;;;;;;2.85;1.05;;;;;;;;;;5092983;28;20411;-72
2021/11/05 12:06:23;;;;;;;2.70;0.88;;;;;;;;;;5092353;28;20028;-70
2021/11/05 12:08:50;;;;;;;2.72;0.82;;;;;;;;;;5091889;28;20484;-70
2021/11/05 12:11:27;;;;;;;2.47;0.95;;;;;;;;;;5092886;28;20042;-72
2021/11/05 12:13:53;;;;;;;2.92;0.95;;;;;;;;;;5095639;28;20043;-73
2021/11/05 12:16:21;;;;;;;2.03;0.80;;;;;;;;;;5095484;28;20081;-72
2021/11/05 12:19:10;;;;;;;4.28;1.08;;;;;;;;;;5095264;28;20020;-69
2021/11/05 12:21:37;;;;;;;8.07;1.25;;;;;;;;;;5077177;28;20028;-70
2021/11/05 12:24:30;;;;;;;4.93;1.13;;;;;;;;;;5095365;28;20062;-69
2021/11/05 12:27:02;;;;;;;3.15;1.00;;;;;;;;;;5093249;28;20111;-70
2021/11/05 12:29:28;;;;;;;2.72;1.08;;;;;;;;;;5095234;28;20051;-70
2021/11/05 12:31:54;;;;;;;3.58;0.88;;;;;;;;;;5095168;28;20068;-71
2021/11/05 12:34:25;;;;;;;8.98;0.98;;;;;;;;;;5076949;28;20159;-71
2021/11/05 12:36:53;;;;;;;4.05;1.20;;;;;;;;;;5095181;28;20024;-70
2021/11/05 12:39:36;;;;;;;10.43;1.65;;;;;;;;;;5095083;28;20016;-71
2021/11/05 12:42:04;;;;;;;9.57;1.10;;;;;;;;;;5095146;28;20538;-71
2021/11/05 12:44:54;;;;;;;6.15;1.30;;;;;;;;;;5095243;28;20016;-70
2021/11/05 12:47:38;;;;;;;13.77;1.45;;;;;;;;;;5076732;28;20077;-71
2021/11/05 12:50:05;;;;;;;2.17;1.00;;;;;;;;;;5076704;28;20157;-71
2021/11/05 12:52:31;;;;;;;4.43;0.82;;;;;;;;;;5094858;28;20019;-70
2021/11/05 12:55:00;;;;;;;3.10;0.90;;;;;;;;;;5094977;28;20039;-70
2021/11/05 12:57:27;;;;;;;5.22;1.08;;;;;;;;;;5094895;28;20091;-70
2021/11/05 12:59:53;;;;;;;5.72;1.00;;;;;;;;;;5076505;28;20031;-70
2021/11/05 13:02:20;;;;;;;5.10;1.23;;;;;;;;;;5094724;28;20059;-71
2021/11/05 13:04:50;;;;;;;5.03;1.20;;;;;;;;;;5094613;28;20100;-70
2021/11/05 13:07:17;;;;;;;5.15;1.15;;;;;;;;;;5076335;28;20020;-70
2021/11/05 13:09:48;;;;;;;3.67;0.90;;;;;;;;;;5094560;28;20031;-70
2021/11/05 13:12:14;;;;;;;5.22;1.10;;;;;;;;;;5094630;28;20100;-71
2021/11/05 13:14:47;;;;;;;3.95;0.90;;;;;;;;;;5094524;28;20032;-70
2021/11/05 13:17:13;;;;;;;2.67;0.93;;;;;;;;;;5093703;28;20027;-71
2021/11/05 13:19:58;;;;;;;2.38;0.90;;;;;;;;;;5094150;28;20410;-70
2021/11/05 13:22:27;;;;;;;4.68;0.90;;;;;;;;;;5092986;28;20024;-70
2021/11/05 13:24:54;;;;;;;3.30;0.95;;;;;;;;;;5094101;28;20104;-70
2021/11/05 13:27:20;;;;;;;5.88;0.98;;;;;;;;;;5094289;28;20058;-71
2021/11/05 13:29:49;;;;;;;3.53;1.02;;;;;;;;;;5094173;28;20024;-70
2021/11/05 13:32:20;;;;;;;1.98;0.80;;;;;;;;;;5093984;28;20052;-71
2021/11/05 13:34:46;;;;;;;6.63;0.98;;;;;;;;;;5109513;28;20503;-71
2021/11/05 13:37:12;;;;;;;3.95;0.80;;;;;;;;;;5093897;28;20020;-71
2021/11/05 13:39:38;;;;;;;2.53;1.00;;;;;;;;;;5093841;28;20024;-70
2021/11/05 13:42:12;;;;;;;3.03;1.10;;;;;;;;;;5093829;28;20024;-70
2021/11/05 13:44:39;;;;;;;2.47;0.98;;;;;;;;;;5094028;28;20024;-70
2021/11/05 13:47:13;;;;;;;2.38;0.80;;;;;;;;;;5094018;28;20047;-70
2021/11/05 13:49:39;;;;;;;3.20;0.80;;;;;;;;;;5093649;28;20080;-70
2021/11/05 13:52:09;;;;;;;1.95;0.80;;;;;;;;;;5093828;28;20035;-70
2021/11/05 13:54:42;;;;;;;5.20;1.00;;;;;;;;;;5109234;28;20114;-70
2021/11/05 13:57:08;;;;;;;1.88;0.75;;;;;;;;;;5109407;28;20107;-70
2021/11/05 13:59:34;;;;;;;3.97;0.93;;;;;;;;;;5109563;28;20114;-70
2021/11/05 14:02:03;;;;;;;2.70;0.98;;;;;;;;;;5093495;28;20023;-71
2021/11/05 14:04:29;;;;;;;4.75;1.00;;;;;;;;;;5093432;28;20024;-71
2021/11/05 14:06:57;;;;;;;1.50;0.70;;;;;;;;;;5093284;28;20023;-71
2021/11/05 14:09:31;;;;;;;2.63;0.90;;;;;;;;;;5093043;28;20054;-70
2021/11/05 14:11:58;;;;;;;2.72;0.90;;;;;;;;;;5109027;28;20019;-70
2021/11/05 14:14:30;;;;;;;2.10;0.82;;;;;;;;;;5093287;28;20475;-70
2021/11/05 14:17:01;;;;;;;1.83;0.75;;;;;;;;;;5109190;28;20402;-70
2021/11/05 14:19:31;;;;;;;1.55;0.80;;;;;;;;;;5093326;28;20024;-70
2021/11/05 14:22:05;;;;;;;1.33;0.70;;;;;;;;;;5108883;28;20028;-70
2021/11/05 14:24:35;;;;;;;2.38;0.90;;;;;;;;;;5108711;28;20467;-70
2021/11/05 14:27:29;;;;;;;4.15;1.13;;;;;;;;;;5108634;28;20493;-70
2021/11/05 14:29:57;;;;;;;2.47;0.90;;;;;;;;;;5093065;28;20069;-70
2021/11/05 14:32:29;;;;;;;4.85;1.00;;;;;;;;;;5092753;28;20105;-70
2021/11/05 14:35:00;;;;;;;2.33;0.77;;;;;;;;;;5108217;28;20043;-70
2021/11/05 14:37:28;;;;;;;2.47;0.90;;;;;;;;;;5108807;28;20171;-70
2021/11/05 14:39:54;;;;;;;2.30;0.80;;;;;;;;;;5108623;28;20048;-71
2021/11/05 14:42:20;;;;;;;1.48;0.77;;;;;;;;;;5092856;28;20024;-70
2021/11/05 14:44:46;;;;;;;1.83;0.80;;;;;;;;;;5108470;28;20024;-70
2021/11/05 14:47:12;;;;;;;3.72;0.98;;;;;;;;;;5092727;28;20020;-70